createdAt,value
2023-10-23T00:01:21.809Z,11.43
2023-10-23T00:03:48.765Z,11.32
2023-10-23T00:06:15.585Z,11.06
2023-10-23T00:08:42.482Z,11.26
2023-10-23T00:11:09.078Z,11.09
2023-10-23T00:13:35.726Z,10.99
2023-10-23T00:16:02.505Z,10.81
2023-10-23T00:18:29.122Z,10.94
2023-10-23T00:20:57.120Z,10.74
2023-10-23T00:23:23.627Z,10.66
2023-10-23T00:25:50.131Z,10.49
2023-10-23T00:28:16.630Z,10.42
2023-10-23T00:30:45.148Z,10.28
2023-10-23T00:33:12.110Z,10.06
2023-10-23T00:35:38.997Z,10.32
2023-10-23T00:38:05.634Z,10.33
2023-10-23T00:40:32.379Z,10.47
2023-10-23T00:42:59.056Z,10.44
2023-10-23T00:45:25.805Z,10.51
2023-10-23T00:47:53.099Z,10.44
2023-10-23T00:50:19.816Z,10.19
2023-10-23T00:52:46.448Z,10.27
2023-10-23T00:55:13.725Z,10.50
2023-10-23T00:57:40.597Z,10.65
2023-10-23T01:00:09.491Z,10.52
2023-10-23T01:02:36.670Z,10.60
2023-10-23T01:05:03.737Z,10.56
2023-10-23T01:07:30.312Z,10.24
2023-10-23T01:09:57.049Z,10.21
2023-10-23T01:12:23.636Z,10.35
2023-10-23T01:14:50.192Z,10.59
2023-10-23T01:17:16.784Z,10.75
2023-10-23T01:19:44.861Z,10.88
2023-10-23T01:22:11.368Z,10.53
2023-10-23T01:24:45.967Z,10.53
2023-10-23T01:27:12.563Z,10.30
2023-10-23T01:29:39.117Z,10.04
2023-10-23T01:32:06.385Z,10.08
2023-10-23T01:34:33.087Z,10.12
2023-10-23T01:36:59.594Z,10.01
2023-10-23T01:39:26.104Z,10.35
2023-10-23T01:41:52.862Z,10.26
2023-10-23T01:44:19.376Z,10.44
2023-10-23T01:46:46.002Z,10.61
2023-10-23T01:49:12.690Z,10.08
2023-10-23T01:51:39.284Z,10.33
2023-10-23T01:54:05.907Z,10.39
2023-10-23T01:56:32.379Z,10.51
2023-10-23T01:58:58.885Z,10.75
2023-10-23T02:01:25.783Z,10.49
2023-10-23T02:03:52.898Z,10.02
2023-10-23T02:06:19.702Z,9.91
2023-10-23T02:08:46.478Z,9.60
2023-10-23T02:11:13.066Z,9.85
2023-10-23T02:13:41.888Z,10.05
2023-10-23T02:16:08.388Z,10.08
2023-10-23T02:18:35.044Z,9.86
2023-10-23T02:21:01.710Z,9.85
2023-10-23T02:23:32.789Z,9.71
2023-10-23T02:26:02.071Z,9.90
2023-10-23T02:28:28.673Z,10.26
2023-10-23T02:30:56.084Z,10.25
2023-10-23T02:33:22.792Z,9.80
2023-10-23T02:35:49.442Z,9.70
2023-10-23T02:38:16.000Z,9.85
2023-10-23T02:40:52.938Z,10.09
2023-10-23T02:43:20.670Z,9.90
2023-10-23T02:45:47.954Z,10.01
2023-10-23T02:48:16.480Z,9.86
2023-10-23T02:50:43.184Z,10.00
2023-10-23T02:53:09.798Z,10.20
2023-10-23T02:55:36.278Z,9.79
2023-10-23T02:58:02.884Z,9.91
2023-10-23T03:00:30.037Z,10.02
2023-10-23T03:02:56.749Z,10.01
2023-10-23T03:05:23.382Z,9.84
2023-10-23T03:07:49.926Z,9.69
2023-10-23T03:10:16.808Z,9.50
2023-10-23T03:12:43.387Z,9.66
2023-10-23T03:15:10.609Z,9.30
2023-10-23T03:17:37.160Z,9.58
2023-10-23T03:20:04.961Z,9.77
2023-10-23T03:22:33.631Z,9.53
2023-10-23T03:25:00.341Z,9.65
2023-10-23T03:27:27.399Z,9.65
2023-10-23T03:29:53.944Z,9.63
2023-10-23T03:32:20.623Z,8.78
2023-10-23T03:34:47.168Z,8.70
2023-10-23T03:37:13.714Z,9.27
2023-10-23T03:39:41.043Z,9.03
2023-10-23T03:42:07.992Z,9.09
2023-10-23T03:44:34.493Z,9.53
2023-10-23T03:47:01.675Z,9.47
2023-10-23T03:49:29.736Z,9.52
2023-10-23T03:51:56.533Z,9.36
2023-10-23T03:54:23.768Z,9.24
2023-10-23T03:56:50.335Z,8.88
2023-10-23T03:59:16.847Z,9.12
2023-10-23T04:01:43.381Z,9.29
2023-10-23T04:04:11.337Z,9.07
2023-10-23T04:06:40.768Z,9.30
2023-10-23T04:09:07.880Z,8.99
2023-10-23T04:11:34.432Z,9.02
2023-10-23T04:14:01.117Z,8.67
2023-10-23T04:16:27.945Z,8.34
2023-10-23T04:18:54.641Z,8.17
2023-10-23T04:21:22.108Z,8.52
2023-10-23T04:23:48.760Z,8.66
2023-10-23T04:26:15.306Z,9.00
2023-10-23T04:28:41.952Z,9.25
2023-10-23T04:31:08.578Z,9.31
2023-10-23T04:33:36.391Z,9.41
2023-10-23T04:36:03.626Z,9.53
2023-10-23T04:38:32.539Z,9.26
2023-10-23T04:40:59.098Z,9.47
2023-10-23T04:43:25.601Z,9.11
2023-10-23T04:45:54.580Z,9.04
2023-10-23T04:48:21.452Z,8.91
2023-10-23T04:50:48.031Z,9.15
2023-10-23T04:53:14.666Z,8.46
2023-10-23T04:55:41.791Z,9.27
2023-10-23T04:58:10.267Z,8.99
2023-10-23T05:00:39.395Z,8.96
2023-10-23T05:03:06.910Z,8.84
2023-10-23T05:05:35.086Z,9.29
2023-10-23T05:08:01.760Z,9.28
2023-10-23T05:10:28.367Z,9.27
2023-10-23T05:12:55.214Z,9.02
2023-10-23T05:15:21.945Z,9.37
2023-10-23T05:17:48.561Z,9.16
2023-10-23T05:20:15.581Z,9.01
2023-10-23T05:22:42.154Z,9.20
2023-10-23T05:25:10.538Z,9.35
2023-10-23T05:27:38.257Z,9.24
2023-10-23T05:30:07.972Z,9.30
2023-10-23T05:32:36.550Z,9.35
2023-10-23T05:35:05.099Z,9.38
2023-10-23T05:37:35.556Z,9.03
2023-10-23T05:40:02.416Z,8.90
2023-10-23T05:42:29.072Z,8.53
2023-10-23T05:44:55.787Z,8.46
2023-10-23T05:47:22.278Z,8.83
2023-10-23T05:49:48.757Z,8.55
2023-10-23T05:52:15.233Z,8.53
2023-10-23T05:54:41.840Z,8.41
2023-10-23T05:57:08.355Z,8.73
2023-10-23T05:59:35.006Z,9.01
2023-10-23T06:02:01.928Z,9.01
2023-10-23T06:04:28.541Z,9.07
2023-10-23T06:06:55.300Z,9.09
2023-10-23T06:09:21.813Z,8.45
2023-10-23T06:11:48.303Z,8.70
2023-10-23T06:14:14.798Z,8.52
2023-10-23T06:16:41.338Z,8.37
2023-10-23T06:19:07.943Z,8.17
2023-10-23T06:21:34.479Z,8.63
2023-10-23T06:24:01.094Z,8.20
2023-10-23T06:26:29.579Z,8.04
2023-10-23T06:28:57.142Z,8.04
2023-10-23T06:31:23.686Z,8.05
2023-10-23T06:33:52.248Z,8.00
2023-10-23T06:36:18.897Z,8.12
2023-10-23T06:38:45.439Z,7.91
2023-10-23T06:41:12.028Z,7.96
2023-10-23T06:43:38.655Z,7.97
2023-10-23T06:46:06.208Z,8.29
2023-10-23T06:48:33.021Z,8.46
2023-10-23T06:51:00.596Z,8.51
2023-10-23T06:53:27.213Z,8.97
2023-10-23T06:55:56.729Z,8.95
2023-10-23T06:58:23.804Z,8.77
2023-10-23T07:00:50.511Z,8.79
2023-10-23T07:03:18.066Z,9.08
2023-10-23T07:05:45.008Z,8.65
2023-10-23T07:08:13.225Z,8.73
2023-10-23T07:10:39.992Z,8.72
2023-10-23T07:13:15.529Z,9.19
2023-10-23T07:15:48.614Z,9.23
2023-10-23T07:18:15.247Z,9.00
2023-10-23T07:20:41.949Z,8.99
2023-10-23T07:23:08.448Z,8.79
2023-10-23T07:25:34.979Z,8.70
2023-10-23T07:28:01.503Z,8.67
2023-10-23T07:30:28.033Z,9.37
2023-10-23T07:32:54.683Z,9.42
2023-10-23T07:35:21.360Z,10.01
2023-10-23T07:37:47.901Z,9.88
2023-10-23T07:40:14.538Z,10.08
2023-10-23T07:42:41.154Z,10.22
2023-10-23T07:45:09.658Z,9.95
2023-10-23T07:47:36.320Z,10.30
2023-10-23T07:50:05.365Z,10.31
2023-10-23T07:52:33.444Z,10.67
2023-10-23T07:55:00.900Z,10.77
2023-10-23T07:57:30.980Z,10.20
2023-10-23T07:59:57.437Z,10.50
2023-10-23T08:02:24.187Z,10.25
2023-10-23T08:04:50.820Z,9.92
2023-10-23T08:07:17.594Z,10.63
2023-10-23T08:09:44.326Z,9.99
2023-10-23T08:12:13.671Z,9.82
2023-10-23T08:14:43.989Z,9.91
2023-10-23T08:17:10.678Z,9.70
2023-10-23T08:19:38.102Z,9.96
2023-10-23T08:22:05.234Z,10.49
2023-10-23T08:24:31.915Z,10.77
2023-10-23T08:26:58.412Z,10.46
2023-10-23T08:29:24.890Z,10.04
2023-10-23T08:31:51.445Z,10.07
2023-10-23T08:34:22.217Z,10.53
2023-10-23T08:36:50.237Z,10.71
2023-10-23T08:39:16.892Z,10.32
2023-10-23T08:41:43.509Z,10.51
2023-10-23T08:44:11.132Z,10.95
2023-10-23T08:46:40.775Z,11.06
2023-10-23T08:49:07.701Z,10.99
2023-10-23T08:51:39.945Z,11.19
2023-10-23T08:54:16.917Z,11.46
2023-10-23T08:56:44.392Z,11.61
2023-10-23T08:59:15.520Z,11.93
2023-10-23T09:01:42.490Z,11.88
2023-10-23T09:04:12.015Z,11.95
2023-10-23T09:06:39.576Z,12.29
2023-10-23T09:09:07.133Z,12.36
2023-10-23T09:11:45.580Z,12.71
2023-10-23T09:14:24.914Z,12.79
2023-10-23T09:16:53.710Z,12.50
2023-10-23T09:19:39.892Z,12.52
2023-10-23T09:22:08.435Z,12.46
2023-10-23T09:24:37.860Z,12.31
2023-10-23T09:27:04.917Z,12.08
2023-10-23T09:29:32.433Z,12.00
2023-10-23T09:32:00.320Z,11.83
2023-10-23T09:34:29.068Z,11.90
2023-10-23T09:36:55.863Z,11.87
2023-10-23T09:39:23.784Z,11.94
2023-10-23T09:41:50.962Z,12.04
2023-10-23T09:44:18.856Z,12.11
2023-10-23T09:46:49.405Z,12.09
2023-10-23T09:49:17.507Z,12.35
2023-10-23T09:51:51.028Z,12.38
2023-10-23T09:54:21.851Z,12.36
2023-10-23T09:56:53.032Z,12.33
2023-10-23T09:59:28.226Z,12.53
2023-10-23T10:02:01.811Z,12.57
2023-10-23T10:04:40.735Z,13.16
2023-10-23T10:07:40.898Z,12.84
2023-10-23T10:10:09.380Z,13.00
2023-10-23T10:12:39.740Z,13.10
2023-10-23T10:15:10.984Z,13.19
2023-10-23T10:17:43.168Z,13.24
2023-10-23T10:20:12.952Z,13.33
2023-10-23T10:22:44.785Z,13.31
2023-10-23T10:25:13.641Z,13.38
2023-10-23T10:27:40.453Z,13.34
2023-10-23T10:30:50.967Z,13.37
2023-10-23T10:34:26.408Z,13.38
2023-10-23T10:36:17.487Z,13.40
2023-10-23T10:39:04.052Z,13.32
2023-10-23T10:41:35.871Z,12.98
2023-10-23T10:44:11.675Z,13.17
2023-10-23T10:46:42.094Z,13.35
2023-10-23T10:49:09.071Z,13.37
2023-10-23T10:51:35.678Z,13.11
2023-10-23T10:54:09.032Z,13.11
2023-10-23T10:56:35.636Z,13.53
2023-10-23T10:59:05.367Z,13.28
2023-10-23T11:01:32.994Z,13.11
2023-10-23T11:04:01.294Z,13.77
2023-10-23T11:06:28.080Z,13.47
2023-10-23T11:08:55.992Z,13.95
2023-10-23T11:11:22.791Z,13.43
2023-10-23T11:13:49.275Z,13.31
2023-10-23T11:16:16.331Z,13.50
2023-10-23T11:18:43.273Z,13.93
2023-10-23T11:21:10.405Z,14.06
2023-10-23T11:23:36.968Z,14.12
2023-10-23T11:26:04.841Z,13.72
2023-10-23T11:28:31.374Z,13.71
2023-10-23T11:31:01.512Z,14.12
2023-10-23T11:33:28.247Z,14.30
2023-10-23T11:35:54.917Z,14.89
2023-10-23T11:38:25.504Z,15.07
2023-10-23T11:40:56.161Z,14.80
2023-10-23T11:43:23.454Z,15.04
2023-10-23T11:45:50.638Z,14.89
2023-10-23T11:48:17.574Z,15.60
2023-10-23T11:50:45.468Z,15.17
2023-10-23T11:53:16.708Z,14.84
2023-10-23T11:55:46.694Z,14.61
2023-10-23T11:58:13.336Z,14.91
2023-10-23T12:00:41.961Z,14.86
2023-10-23T12:03:08.551Z,14.48
2023-10-23T12:05:35.329Z,14.98
2023-10-23T12:08:01.954Z,15.22
2023-10-23T12:10:29.283Z,14.92
2023-10-23T12:12:57.069Z,14.54
2023-10-23T12:15:25.175Z,14.44
2023-10-23T12:17:52.483Z,14.26
2023-10-23T12:20:22.736Z,14.44
2023-10-23T12:22:50.228Z,14.66
2023-10-23T12:25:17.409Z,14.26
2023-10-23T12:27:44.272Z,14.46
2023-10-23T12:30:16.422Z,14.62
2023-10-23T12:33:16.947Z,14.78
2023-10-23T12:35:39.335Z,14.55
2023-10-23T12:38:06.073Z,14.64
2023-10-23T12:40:36.162Z,14.69
2023-10-23T12:43:04.955Z,14.48
2023-10-23T12:45:33.033Z,14.44
2023-10-23T12:47:59.811Z,14.45
2023-10-23T12:50:26.504Z,14.54
2023-10-23T12:52:53.309Z,14.40
2023-10-23T12:55:19.857Z,13.95
2023-10-23T12:57:47.319Z,14.14
2023-10-23T13:00:14.857Z,14.16
2023-10-23T13:02:43.845Z,14.20
2023-10-23T13:05:11.013Z,14.11
2023-10-23T13:07:38.053Z,14.20
2023-10-23T13:10:05.812Z,14.33
2023-10-23T13:12:32.370Z,14.18
2023-10-23T13:14:59.008Z,14.16
2023-10-23T13:17:25.697Z,14.34
2023-10-23T13:19:54.116Z,14.44
2023-10-23T13:22:20.719Z,14.33
2023-10-23T13:24:47.328Z,14.48
2023-10-23T13:27:16.341Z,14.55
2023-10-23T13:29:44.079Z,14.30
2023-10-23T13:32:15.280Z,14.29
2023-10-23T13:34:42.815Z,14.65
2023-10-23T13:37:09.909Z,14.44
2023-10-23T13:39:36.436Z,14.21
2023-10-23T13:42:03.357Z,14.37
2023-10-23T13:44:31.246Z,14.46
2023-10-23T13:46:57.809Z,14.56
2023-10-23T13:49:24.432Z,14.88
2023-10-23T13:51:51.030Z,14.45
2023-10-23T13:54:18.004Z,14.76
2023-10-23T13:56:46.512Z,14.63
2023-10-23T13:59:13.059Z,14.73
2023-10-23T14:01:40.732Z,14.70
2023-10-23T14:04:07.681Z,14.63
2023-10-23T14:06:34.307Z,14.60
2023-10-23T14:09:41.342Z,14.28
2023-10-23T14:12:00.320Z,14.48
2023-10-23T14:14:29.348Z,14.34
2023-10-23T14:16:59.428Z,14.43
2023-10-23T14:19:42.304Z,14.22
2023-10-23T14:22:13.175Z,14.34
2023-10-23T14:24:40.708Z,14.33
2023-10-23T14:27:07.545Z,14.27
2023-10-23T14:29:34.059Z,14.14
2023-10-23T14:32:01.205Z,14.15
2023-10-23T14:34:28.478Z,14.03
2023-10-23T14:36:55.829Z,14.12
2023-10-23T14:39:27.090Z,14.13
2023-10-23T14:41:54.272Z,14.07
2023-10-23T14:44:20.855Z,13.84
2023-10-23T14:46:50.137Z,13.90
2023-10-23T14:49:17.906Z,13.78
2023-10-23T14:51:45.181Z,13.79
2023-10-23T14:54:11.704Z,13.55
2023-10-23T14:56:38.362Z,13.47
2023-10-23T14:59:05.151Z,13.44
2023-10-23T15:01:31.887Z,13.49
2023-10-23T15:03:59.899Z,13.44
2023-10-23T15:06:26.943Z,13.46
2023-10-23T15:08:53.765Z,13.57
2023-10-23T15:11:23.272Z,13.59
2023-10-23T15:13:50.836Z,13.54
2023-10-23T15:16:17.798Z,13.36
2023-10-23T15:18:44.373Z,13.35
2023-10-23T15:21:12.533Z,13.26
2023-10-23T15:23:39.546Z,13.32
2023-10-23T15:26:06.195Z,13.25
2023-10-23T15:28:36.488Z,13.03
2023-10-23T15:31:06.484Z,12.99
2023-10-23T15:33:36.600Z,12.93
2023-10-23T15:36:05.972Z,12.98
2023-10-23T15:38:35.995Z,12.90
2023-10-23T15:41:08.238Z,12.93
2023-10-23T15:43:36.991Z,12.61
2023-10-23T15:46:04.961Z,13.01
2023-10-23T15:48:32.038Z,12.81
2023-10-23T15:50:59.733Z,12.75
2023-10-23T15:53:28.105Z,13.03
2023-10-23T15:55:56.534Z,12.86
2023-10-23T15:58:24.688Z,12.90
2023-10-23T16:00:54.176Z,12.70
2023-10-23T16:03:21.915Z,12.81
2023-10-23T16:05:50.425Z,12.91
2023-10-23T16:08:18.952Z,12.87
2023-10-23T16:10:48.652Z,12.75
2023-10-23T16:13:17.611Z,12.89
2023-10-23T16:15:46.106Z,12.80
2023-10-23T16:18:16.834Z,13.00
2023-10-23T16:20:44.679Z,12.97
2023-10-23T16:23:13.479Z,12.87
2023-10-23T16:25:42.872Z,12.90
2023-10-23T16:28:11.829Z,12.79
2023-10-23T16:30:41.333Z,12.43
2023-10-23T16:33:10.295Z,12.74
2023-10-23T16:35:37.787Z,12.68
2023-10-23T16:38:06.904Z,12.71
2023-10-23T16:40:34.822Z,12.43
2023-10-23T16:43:02.778Z,12.68
2023-10-23T16:45:32.428Z,12.71
2023-10-23T16:48:01.128Z,12.69
2023-10-23T16:50:29.452Z,12.55
2023-10-23T16:52:59.966Z,12.93
2023-10-23T16:55:26.928Z,12.58
2023-10-23T16:57:53.671Z,12.62
2023-10-23T17:00:21.195Z,12.61
2023-10-23T17:02:50.910Z,12.76
2023-10-23T17:05:17.808Z,12.50
2023-10-23T17:07:44.459Z,12.43
2023-10-23T17:10:11.256Z,12.23
2023-10-23T17:12:37.988Z,12.27
2023-10-23T17:15:05.202Z,12.17
2023-10-23T17:17:31.885Z,12.24
2023-10-23T17:19:59.095Z,12.09
2023-10-23T17:22:25.809Z,12.37
2023-10-23T17:24:53.038Z,12.53
2023-10-23T17:27:20.560Z,12.46
2023-10-23T17:29:47.210Z,12.35
2023-10-23T17:32:14.024Z,12.31
2023-10-23T17:34:40.847Z,12.44
2023-10-23T17:37:09.454Z,12.58
2023-10-23T17:39:36.196Z,12.23
2023-10-23T17:42:03.504Z,12.15
2023-10-23T17:44:30.712Z,12.42
2023-10-23T17:46:57.513Z,12.23
2023-10-23T17:49:24.297Z,12.21
2023-10-23T17:51:51.832Z,12.23
2023-10-23T17:54:18.573Z,12.24
2023-10-23T17:56:45.476Z,12.39
2023-10-23T17:59:12.943Z,12.36
2023-10-23T18:01:42.658Z,12.22
2023-10-23T18:04:11.659Z,12.30
2023-10-23T18:06:39.316Z,12.49
2023-10-23T18:09:06.270Z,12.27
2023-10-23T18:11:34.189Z,12.44
2023-10-23T18:14:01.233Z,12.49
2023-10-23T18:16:29.131Z,12.50
2023-10-23T18:18:56.609Z,12.47
2023-10-23T18:21:23.991Z,12.28
2023-10-23T18:23:53.210Z,12.21
2023-10-23T18:26:19.930Z,12.15
2023-10-23T18:28:46.955Z,12.09
2023-10-23T18:31:15.026Z,12.06
2023-10-23T18:33:41.745Z,12.19
2023-10-23T18:36:17.133Z,12.25
2023-10-23T18:38:45.834Z,12.07
2023-10-23T18:41:17.788Z,12.11
2023-10-23T18:43:46.280Z,12.10
2023-10-23T18:46:14.351Z,12.25
2023-10-23T18:48:42.169Z,12.23
2023-10-23T18:51:12.629Z,12.12
2023-10-23T18:53:41.572Z,12.18
2023-10-23T18:56:08.465Z,12.39
2023-10-23T18:58:35.347Z,12.17
2023-10-23T19:01:03.425Z,12.27
2023-10-23T19:03:31.444Z,12.21
2023-10-23T19:05:58.413Z,12.15
2023-10-23T19:08:28.642Z,12.17
2023-10-23T19:10:55.198Z,12.24
2023-10-23T19:13:21.745Z,12.55
2023-10-23T19:15:57.801Z,12.09
2023-10-23T19:18:27.540Z,12.35
2023-10-23T19:21:01.749Z,12.30
2023-10-23T19:23:29.602Z,12.20
2023-10-23T19:25:56.278Z,12.46
2023-10-23T19:28:23.004Z,12.18
2023-10-23T19:30:49.841Z,12.34
2023-10-23T19:33:16.686Z,12.20
2023-10-23T19:35:43.600Z,12.22
2023-10-23T19:38:10.714Z,12.45
2023-10-23T19:40:37.779Z,12.28
2023-10-23T19:43:18.262Z,12.01
2023-10-23T19:45:45.322Z,12.25
2023-10-23T19:48:13.488Z,12.26
2023-10-23T19:50:47.365Z,12.36
2023-10-23T19:53:18.587Z,12.34
2023-10-23T19:55:48.992Z,11.93
2023-10-23T19:58:18.039Z,12.07
2023-10-23T20:00:51.128Z,12.22
2023-10-23T20:03:19.714Z,12.25
2023-10-23T20:05:53.644Z,12.28
2023-10-23T20:08:20.631Z,12.36
2023-10-23T20:10:47.134Z,12.19
2023-10-23T20:13:13.740Z,12.32
2023-10-23T20:15:40.474Z,12.18
2023-10-23T20:18:08.696Z,12.45
2023-10-23T20:20:35.303Z,12.30
2023-10-23T20:23:02.830Z,12.35
2023-10-23T20:25:33.991Z,12.01
2023-10-23T20:28:01.411Z,12.15
2023-10-23T20:30:28.888Z,12.23
2023-10-23T20:32:56.731Z,12.11
2023-10-23T20:35:23.288Z,12.09
2023-10-23T20:37:52.668Z,12.10
2023-10-23T20:40:19.352Z,12.25
2023-10-23T20:42:45.940Z,12.24
2023-10-23T20:45:14.203Z,12.16
2023-10-23T20:47:41.039Z,12.35
2023-10-23T20:50:08.432Z,12.44
2023-10-23T20:52:35.100Z,12.21
2023-10-23T20:55:01.889Z,12.07
2023-10-23T20:57:28.545Z,12.30
2023-10-23T20:59:55.132Z,12.29
2023-10-23T21:02:21.715Z,11.98
2023-10-23T21:04:48.226Z,12.23
2023-10-23T21:07:14.770Z,12.00
2023-10-23T21:09:41.563Z,11.95
2023-10-23T21:12:08.713Z,12.10
2023-10-23T21:14:47.597Z,12.02
2023-10-23T21:17:17.508Z,12.03
2023-10-23T21:19:44.214Z,12.03
2023-10-23T21:22:11.323Z,12.08
2023-10-23T21:24:38.210Z,12.07
2023-10-23T21:27:05.236Z,11.79
2023-10-23T21:29:32.111Z,11.91
2023-10-23T21:32:00.775Z,11.93
2023-10-23T21:34:27.539Z,11.97
2023-10-23T21:36:54.241Z,11.72
2023-10-23T21:39:20.849Z,11.81
2023-10-23T21:41:47.413Z,11.90
2023-10-23T21:44:14.014Z,11.89
2023-10-23T21:46:40.639Z,11.90
2023-10-23T21:49:11.148Z,11.98
2023-10-23T21:51:39.259Z,11.80
2023-10-23T21:54:06.978Z,11.67
2023-10-23T21:57:19.038Z,11.65
2023-10-23T21:59:22.534Z,11.68
2023-10-23T22:01:53.408Z,11.89
2023-10-23T22:04:20.830Z,12.08
2023-10-23T22:06:48.066Z,11.57
2023-10-23T22:09:15.302Z,11.57
2023-10-23T22:11:42.446Z,11.95
2023-10-23T22:14:10.657Z,12.04
2023-10-23T22:16:37.389Z,11.78
2023-10-23T22:19:04.759Z,12.00
2023-10-23T22:21:31.273Z,11.77
2023-10-23T22:23:57.791Z,11.91
2023-10-23T22:26:24.409Z,12.04
2023-10-23T22:28:50.988Z,12.02
2023-10-23T22:31:17.672Z,11.91
2023-10-23T22:33:44.312Z,12.09
2023-10-23T22:36:11.148Z,11.86
2023-10-23T22:38:37.870Z,11.97
2023-10-23T22:41:05.008Z,12.06
2023-10-23T22:43:32.067Z,12.15
2023-10-23T22:46:03.043Z,12.17
2023-10-23T22:48:31.742Z,11.98
2023-10-23T22:50:58.984Z,12.22
2023-10-23T22:53:25.973Z,12.43
2023-10-23T22:55:55.752Z,11.87
2023-10-23T22:58:31.226Z,12.04
2023-10-23T23:00:59.483Z,12.25
2023-10-23T23:03:26.547Z,12.22
2023-10-23T23:06:02.192Z,12.20
2023-10-23T23:08:31.144Z,12.23
2023-10-23T23:10:58.206Z,12.11
2023-10-23T23:13:25.372Z,11.94
2023-10-23T23:15:53.270Z,12.09
2023-10-23T23:18:22.676Z,12.18
2023-10-23T23:20:53.336Z,11.63
2023-10-23T23:23:19.875Z,11.83
2023-10-23T23:25:46.464Z,11.74
2023-10-23T23:28:13.053Z,11.73
2023-10-23T23:30:39.718Z,12.06
2023-10-23T23:33:06.235Z,12.11
2023-10-23T23:35:33.058Z,11.90
2023-10-23T23:38:00.255Z,11.84
2023-10-23T23:40:26.839Z,11.93
2023-10-23T23:42:53.773Z,11.86
2023-10-23T23:45:20.290Z,11.78
2023-10-23T23:47:46.846Z,12.05
2023-10-23T23:50:13.487Z,12.19
2023-10-23T23:52:40.010Z,12.23
2023-10-23T23:55:07.110Z,12.26
2023-10-23T23:57:34.995Z,12.28
